createdAt,value
2019-01-09T00:00:49.275Z,101049.34
2019-01-09T00:03:23.625Z,101046.61
2019-01-09T00:06:00.090Z,101039.24
2019-01-09T00:08:30.558Z,101036.56
2019-01-09T00:11:01.051Z,101036.86
2019-01-09T00:13:31.379Z,101033.72
2019-01-09T00:16:01.700Z,101030.17
2019-01-09T00:18:32.872Z,101032.81
2019-01-09T00:21:03.195Z,101043.98
2019-01-09T00:23:33.631Z,101054.11
2019-01-09T00:26:03.953Z,101041.53
2019-01-09T00:28:34.352Z,101029.13
2019-01-09T00:31:04.680Z,101017.48
2019-01-09T00:33:35.051Z,101007.61
2019-01-09T00:36:05.488Z,100998.12
2019-01-09T00:38:35.805Z,100993.70
2019-01-09T00:41:06.106Z,100995.27
2019-01-09T00:43:36.484Z,100998.81
2019-01-09T00:46:06.815Z,101010.02
2019-01-09T00:48:37.173Z,101019.58
2019-01-09T00:51:07.840Z,101007.15
2019-01-09T00:53:38.234Z,101014.69
2019-01-09T00:56:08.626Z,101026.02
2019-01-09T00:58:39.218Z,101024.34
2019-01-09T01:01:09.699Z,101031.77
2019-01-09T01:04:02.032Z,101029.28
2019-01-09T01:07:12.610Z,101026.81
2019-01-09T01:10:51.221Z,101030.47
2019-01-09T01:14:06.983Z,101035.63
2019-01-09T01:17:17.086Z,101039.09
2019-01-09T01:19:53.575Z,101036.69
2019-01-09T01:22:49.840Z,101028.12
2019-01-09T01:26:06.263Z,101021.70
2019-01-09T01:29:13.844Z,101037.23
2019-01-09T01:32:37.942Z,101036.42
2019-01-09T01:35:44.908Z,101036.83
2019-01-09T01:39:04.703Z,101035.03
2019-01-09T01:42:13.071Z,101038.62
2019-01-09T01:44:59.936Z,101045.11
2019-01-09T01:48:07.044Z,101037.15
2019-01-09T01:51:10.520Z,101044.15
2019-01-09T01:53:57.597Z,101039.01
2019-01-09T01:56:57.245Z,101036.30
2019-01-09T01:59:45.142Z,101029.42
2019-01-09T02:03:00.594Z,101031.98
2019-01-09T02:06:04.424Z,101036.02
2019-01-09T02:08:46.452Z,101042.00
2019-01-09T02:11:35.869Z,101035.61
2019-01-09T02:14:57.601Z,101037.00
2019-01-09T02:17:43.021Z,101035.55
2019-01-09T02:20:50.614Z,101041.62
2019-01-09T02:23:51.821Z,101048.01
2019-01-09T02:26:36.596Z,101054.20
2019-01-09T02:29:36.979Z,101065.09
2019-01-09T02:32:37.589Z,101067.73
2019-01-09T02:35:07.968Z,101071.73
2019-01-09T02:37:38.299Z,101061.53
2019-01-09T02:40:08.615Z,101060.27
2019-01-09T02:42:39.079Z,101065.47
2019-01-09T02:45:09.828Z,101082.43
2019-01-09T02:47:40.269Z,101079.92
2019-01-09T02:50:18.520Z,101065.66
2019-01-09T02:52:48.926Z,101065.22
2019-01-09T02:55:20.385Z,101080.99
2019-01-09T02:57:56.927Z,101080.99
2019-01-09T03:00:24.705Z,101081.89
2019-01-09T03:02:55.187Z,101087.19
2019-01-09T03:05:26.303Z,101075.82
2019-01-09T03:07:56.668Z,101075.82
2019-01-09T03:10:26.984Z,101076.23
2019-01-09T03:12:57.413Z,101077.92
2019-01-09T03:15:28.239Z,101081.89
2019-01-09T03:17:58.578Z,101082.41
2019-01-09T03:20:30.977Z,101076.69
2019-01-09T03:23:01.511Z,101075.41
2019-01-09T03:25:31.896Z,101076.23
2019-01-09T03:30:41.855Z,101079.26
2019-01-09T03:33:24.352Z,101073.69
2019-01-09T03:35:54.715Z,101074.16
2019-01-09T03:38:25.202Z,101074.59
2019-01-09T03:40:55.652Z,101076.33
2019-01-09T03:43:26.042Z,101079.36
2019-01-09T03:45:56.377Z,101076.28
2019-01-09T03:48:26.753Z,101077.20
2019-01-09T03:50:57.099Z,101078.97
2019-01-09T03:59:40.879Z,101084.53
2019-01-09T04:02:13.388Z,101078.08
2019-01-09T04:04:43.761Z,101072.56
2019-01-09T04:07:14.137Z,101062.50
2019-01-09T04:10:03.760Z,101072.94
2019-01-09T04:18:18.507Z,101062.27
2019-01-09T04:20:48.989Z,101066.98
2019-01-09T04:23:19.364Z,101060.45
2019-01-09T04:25:50.069Z,101063.42
2019-01-09T04:28:20.442Z,101064.83
2019-01-09T04:30:50.988Z,101051.36
2019-01-09T04:36:10.561Z,101058.42
2019-01-09T04:39:00.268Z,101058.85
2019-01-09T04:41:30.606Z,101059.28
2019-01-09T04:44:00.917Z,101058.00
2019-01-09T04:46:31.336Z,101053.31
2019-01-09T04:52:02.990Z,101050.77
2019-01-09T04:54:33.381Z,101058.28
2019-01-09T04:59:53.215Z,101058.62
2019-01-09T05:02:23.748Z,101062.49
2019-01-09T05:05:04.807Z,101062.50
2019-01-09T05:07:35.316Z,101064.58
2019-01-09T05:10:45.582Z,101058.97
2019-01-09T05:13:16.041Z,101062.86
2019-01-09T05:15:46.497Z,101057.19
2019-01-09T05:18:16.843Z,101063.73
2019-01-09T05:20:47.470Z,101067.19
2019-01-09T05:23:17.834Z,101066.42
2019-01-09T05:25:48.573Z,101067.26
2019-01-09T05:28:18.974Z,101069.04
2019-01-09T05:30:49.358Z,101074.61
2019-01-09T05:33:19.738Z,101075.96
2019-01-09T05:35:50.247Z,101082.53
2019-01-09T05:38:59.895Z,101079.05
2019-01-09T05:41:30.353Z,101073.71
2019-01-09T05:44:21.257Z,101073.71
2019-01-09T05:46:51.679Z,101064.23
2019-01-09T05:49:22.378Z,101066.41
2019-01-09T05:51:52.741Z,101059.05
2019-01-09T05:54:23.102Z,101058.92
2019-01-09T05:56:53.537Z,101055.48
2019-01-09T05:59:23.910Z,101062.06
2019-01-09T06:01:54.245Z,101062.66
2019-01-09T06:04:24.648Z,101063.44
2019-01-09T06:06:55.670Z,101054.75
2019-01-09T06:09:26.076Z,101061.81
2019-01-09T06:11:56.469Z,101068.31
2019-01-09T06:17:08.842Z,101063.16
2019-01-09T06:19:39.201Z,101068.44
2019-01-09T06:22:09.592Z,101078.03
2019-01-09T06:24:39.986Z,101078.88
2019-01-09T06:27:10.341Z,101083.66
2019-01-09T06:29:40.736Z,101089.77
2019-01-09T06:32:11.231Z,101085.39
2019-01-09T06:34:41.926Z,101087.89
2019-01-09T06:37:12.491Z,101095.52
2019-01-09T06:40:02.000Z,101084.34
2019-01-09T06:45:35.260Z,101084.07
2019-01-09T06:48:05.644Z,101097.13
2019-01-09T06:50:36.035Z,101103.25
2019-01-09T06:53:06.466Z,101110.19
2019-01-09T06:55:36.841Z,101114.89
2019-01-09T06:58:07.156Z,101121.06
2019-01-09T07:09:01.490Z,101113.71
2019-01-09T07:14:15.662Z,101121.98
2019-01-09T07:16:46.057Z,101128.55
2019-01-09T07:22:17.633Z,101132.42
2019-01-09T07:24:48.016Z,101144.66
2019-01-09T07:27:18.389Z,101142.41
2019-01-09T07:29:49.020Z,101143.72
2019-01-09T07:32:19.391Z,101149.47
2019-01-09T07:35:29.577Z,101149.83
2019-01-09T07:38:05.377Z,101148.98
2019-01-09T07:40:35.738Z,101149.47
2019-01-09T07:43:06.202Z,101152.50
2019-01-09T07:45:36.577Z,101155.48
2019-01-09T07:48:06.986Z,101152.84
2019-01-09T07:50:37.364Z,101157.58
2019-01-09T07:53:07.961Z,101156.72
2019-01-09T07:55:38.746Z,101161.09
2019-01-09T07:58:21.110Z,101160.11
2019-01-09T08:00:51.429Z,101162.73
2019-01-09T08:03:21.791Z,101165.37
2019-01-09T08:06:03.141Z,101167.51
2019-01-09T08:08:34.496Z,101163.23
2019-01-09T08:11:04.868Z,101164.58
2019-01-09T08:14:13.164Z,101176.70
2019-01-09T08:16:43.562Z,101175.42
2019-01-09T08:19:13.915Z,101176.80
2019-01-09T08:21:44.238Z,101170.27
2019-01-09T08:24:14.628Z,101178.52
2019-01-09T08:26:44.936Z,101179.82
2019-01-09T08:29:15.432Z,101181.48
2019-01-09T08:31:45.945Z,101195.77
2019-01-09T08:34:16.274Z,101193.64
2019-01-09T08:36:46.644Z,101203.58
2019-01-09T08:39:17.021Z,101197.38
2019-01-09T08:41:47.540Z,101207.73
2019-01-09T08:44:17.873Z,101214.55
2019-01-09T08:46:48.263Z,101229.73
2019-01-09T08:52:15.020Z,101229.37
2019-01-09T09:03:22.755Z,101236.41
2019-01-09T09:06:03.751Z,101245.15
2019-01-09T09:14:39.318Z,101248.17
2019-01-09T09:17:09.981Z,101254.25
2019-01-09T09:19:40.375Z,101259.80
2019-01-09T09:22:10.697Z,101259.77
2019-01-09T09:24:41.098Z,101262.78
2019-01-09T09:27:11.450Z,101262.81
2019-01-09T09:29:41.763Z,101269.20
2019-01-09T09:32:12.109Z,101261.39
2019-01-09T09:34:42.435Z,101266.55
2019-01-09T09:37:12.904Z,101272.17
2019-01-09T09:40:02.167Z,101271.33
2019-01-09T09:42:32.528Z,101273.39
2019-01-09T09:45:14.331Z,101276.45
2019-01-09T09:47:44.699Z,101278.52
2019-01-09T09:50:15.835Z,101281.50
2019-01-09T09:56:06.757Z,101283.06
2019-01-09T09:58:56.209Z,101281.93
2019-01-09T10:01:26.736Z,101276.70
2019-01-09T10:03:57.083Z,101271.83
2019-01-09T10:06:27.623Z,101277.53
2019-01-09T10:08:57.987Z,101285.81
2019-01-09T10:11:28.306Z,101277.44
2019-01-09T10:17:12.790Z,101277.05
2019-01-09T10:19:43.117Z,101279.23
2019-01-09T10:22:13.576Z,101277.73
2019-01-09T10:24:44.013Z,101278.64
2019-01-09T10:27:14.325Z,101280.78
2019-01-09T10:29:44.699Z,101287.75
2019-01-09T10:32:15.032Z,101284.27
2019-01-09T10:34:45.425Z,101271.58
2019-01-09T10:37:15.792Z,101271.84
2019-01-09T10:39:46.224Z,101280.55
2019-01-09T10:45:40.492Z,101276.44
2019-01-09T10:50:52.407Z,101284.08
2019-01-09T10:53:22.766Z,101277.59
2019-01-09T10:55:53.236Z,101286.23
2019-01-09T10:58:23.581Z,101281.73
2019-01-09T11:00:53.950Z,101281.13
2019-01-09T11:03:24.267Z,101284.92
2019-01-09T11:05:55.728Z,101286.69
2019-01-09T11:09:10.180Z,101282.65
2019-01-09T11:12:07.601Z,101277.38
2019-01-09T11:17:42.398Z,101286.49
2019-01-09T11:20:53.826Z,101281.72
2019-01-09T11:23:24.171Z,101286.95
2019-01-09T11:25:54.550Z,101278.63
2019-01-09T11:28:24.907Z,101281.25
2019-01-09T11:30:55.273Z,101274.68
2019-01-09T11:33:25.593Z,101283.31
2019-01-09T11:35:56.092Z,101270.72
2019-01-09T11:38:26.540Z,101266.70
2019-01-09T11:40:57.035Z,101265.77
2019-01-09T11:43:27.357Z,101256.95
2019-01-09T11:49:07.020Z,101254.20
2019-01-09T11:51:37.756Z,101248.09
2019-01-09T11:54:08.234Z,101252.99
2019-01-09T11:56:39.812Z,101251.59
2019-01-09T11:59:10.362Z,101252.93
2019-01-09T12:02:00.477Z,101242.27
2019-01-09T12:04:30.822Z,101240.45
2019-01-09T12:07:01.140Z,101261.31
2019-01-09T12:09:31.532Z,101246.53
2019-01-09T12:12:01.962Z,101241.33
2019-01-09T12:14:32.333Z,101250.44
2019-01-09T12:17:04.986Z,101237.84
2019-01-09T12:19:35.393Z,101241.67
2019-01-09T12:22:05.789Z,101242.08
2019-01-09T12:24:36.500Z,101235.83
2019-01-09T12:29:50.362Z,101251.75
2019-01-09T12:32:20.712Z,101251.85
2019-01-09T12:35:02.147Z,101252.29
2019-01-09T12:37:32.560Z,101253.97
2019-01-09T12:43:06.348Z,101252.11
2019-01-09T12:45:36.751Z,101249.93
2019-01-09T12:48:07.112Z,101252.55
2019-01-09T12:51:00.923Z,101253.98
2019-01-09T12:56:14.550Z,101254.83
2019-01-09T12:58:44.941Z,101252.15
2019-01-09T13:01:20.953Z,101260.07
2019-01-09T13:03:51.315Z,101262.75
2019-01-09T13:06:21.678Z,101270.64
2019-01-09T13:12:14.176Z,101253.68
2019-01-09T13:14:44.549Z,101272.83
2019-01-09T13:17:15.034Z,101270.02
2019-01-09T13:22:37.409Z,101267.37
2019-01-09T13:25:08.451Z,101278.31
2019-01-09T13:27:38.843Z,101284.08
2019-01-09T13:30:14.782Z,101279.69
2019-01-09T13:32:45.573Z,101283.02
2019-01-09T13:35:17.113Z,101277.31
2019-01-09T13:37:52.920Z,101291.66
2019-01-09T13:40:23.296Z,101291.72
2019-01-09T13:42:53.730Z,101289.44
2019-01-09T13:45:24.119Z,101286.66
2019-01-09T13:47:55.340Z,101294.59
2019-01-09T13:50:25.750Z,101299.45
2019-01-09T13:52:56.180Z,101302.45
2019-01-09T13:55:45.473Z,101293.34
2019-01-09T13:58:15.845Z,101289.38
2019-01-09T14:04:07.671Z,101304.63
2019-01-09T14:06:38.530Z,101293.24
2019-01-09T14:09:10.164Z,101302.92
2019-01-09T14:11:59.538Z,101307.59
2019-01-09T14:14:30.020Z,101313.37
2019-01-09T14:17:00.788Z,101326.88
2019-01-09T14:19:31.225Z,101320.82
2019-01-09T14:22:12.907Z,101317.39
2019-01-09T14:24:44.257Z,101318.73
2019-01-09T14:27:16.381Z,101323.28
2019-01-09T14:32:48.776Z,101330.86
2019-01-09T14:35:19.241Z,101331.33
2019-01-09T14:38:12.789Z,101333.10
2019-01-09T14:40:43.611Z,101326.95
2019-01-09T14:43:13.945Z,101333.05
2019-01-09T14:45:44.391Z,101329.02
2019-01-09T14:48:14.939Z,101339.59
2019-01-09T14:53:46.422Z,101345.35
2019-01-09T14:56:16.744Z,101342.67
2019-01-09T14:58:47.677Z,101345.70
2019-01-09T15:01:18.054Z,101339.13
2019-01-09T15:03:48.488Z,101349.58
2019-01-09T15:06:19.034Z,101349.89
2019-01-09T15:09:16.383Z,101352.98
2019-01-09T15:11:46.778Z,101357.41
2019-01-09T15:14:17.172Z,101362.70
2019-01-09T15:16:47.813Z,101368.00
2019-01-09T15:19:37.077Z,101375.18
2019-01-09T15:22:07.621Z,101381.70
2019-01-09T15:24:38.023Z,101381.13
2019-01-09T15:30:31.991Z,101384.45
2019-01-09T15:33:02.366Z,101380.92
2019-01-09T15:35:32.740Z,101389.45
2019-01-09T15:38:03.190Z,101388.23
2019-01-09T15:40:34.723Z,101391.36
2019-01-09T15:43:05.079Z,101394.43
2019-01-09T15:45:35.484Z,101387.89
2019-01-09T15:48:09.804Z,101396.64
2019-01-09T15:50:40.132Z,101390.17
2019-01-09T15:53:11.574Z,101397.49
2019-01-09T15:55:42.018Z,101399.33
2019-01-09T15:58:12.694Z,101405.05
2019-01-09T16:00:45.698Z,101414.27
2019-01-09T16:03:16.781Z,101408.05
2019-01-09T16:05:47.355Z,101416.86
2019-01-09T16:08:17.750Z,101419.98
2019-01-09T16:10:51.154Z,101420.13
2019-01-09T16:13:21.585Z,101421.88
2019-01-09T16:15:52.062Z,101415.88
2019-01-09T16:18:22.457Z,101424.17
2019-01-09T16:20:53.047Z,101422.43
2019-01-09T16:23:23.417Z,101423.31
2019-01-09T16:25:53.865Z,101423.37
2019-01-09T16:28:24.297Z,101424.70
2019-01-09T16:31:19.998Z,101434.31
2019-01-09T16:33:50.464Z,101438.17
2019-01-09T16:36:23.873Z,101429.08
2019-01-09T16:38:54.246Z,101440.02
2019-01-09T16:41:24.625Z,101437.84
2019-01-09T16:43:55.097Z,101442.67
2019-01-09T16:46:25.471Z,101440.53
2019-01-09T16:48:57.437Z,101439.66
2019-01-09T16:51:27.974Z,101436.69
2019-01-09T16:53:58.451Z,101448.48
2019-01-09T16:56:30.846Z,101446.29
2019-01-09T16:59:01.237Z,101446.70
2019-01-09T17:01:34.140Z,101453.29
2019-01-09T17:04:07.490Z,101447.95
2019-01-09T17:06:38.176Z,101452.73
2019-01-09T17:09:09.920Z,101467.64
2019-01-09T17:11:40.336Z,101472.48
2019-01-09T17:14:10.799Z,101467.73
2019-01-09T17:16:41.172Z,101474.27
2019-01-09T17:19:14.625Z,101471.27
2019-01-09T17:21:45.134Z,101476.84
2019-01-09T17:24:15.480Z,101479.88
2019-01-09T17:26:45.894Z,101492.94
2019-01-09T17:29:16.234Z,101491.16
2019-01-09T17:31:46.615Z,101492.10
2019-01-09T17:34:18.134Z,101494.73
2019-01-09T17:36:48.785Z,101490.81
2019-01-09T17:39:19.165Z,101501.68
2019-01-09T17:41:49.594Z,101499.48
2019-01-09T17:44:19.940Z,101502.64
2019-01-09T17:46:50.396Z,101510.03
2019-01-09T17:49:20.726Z,101510.03
2019-01-09T17:51:51.451Z,101511.37
2019-01-09T17:54:21.818Z,101514.03
2019-01-09T17:56:52.228Z,101510.55
2019-01-09T17:59:23.711Z,101512.33
2019-01-09T18:01:54.496Z,101518.86
2019-01-09T18:04:27.725Z,101536.72
2019-01-09T18:06:58.115Z,101530.65
2019-01-09T18:09:28.390Z,101528.05
2019-01-09T18:11:58.735Z,101535.45
2019-01-09T18:14:29.026Z,101538.55
2019-01-09T18:16:59.382Z,101541.66
2019-01-09T18:19:32.487Z,101535.88
2019-01-09T18:22:04.938Z,101550.66
2019-01-09T18:24:35.277Z,101551.38
2019-01-09T18:27:05.683Z,101553.19
2019-01-09T18:29:36.131Z,101551.46
2019-01-09T18:32:48.968Z,101559.81
2019-01-09T18:35:45.890Z,101555.05
2019-01-09T18:39:04.130Z,101567.34
2019-01-09T18:42:33.374Z,101571.70
2019-01-09T18:45:35.231Z,101562.61
2019-01-09T18:48:48.280Z,101573.94
2019-01-09T18:51:52.317Z,101575.67
2019-01-09T18:54:22.776Z,101581.83
2019-01-09T18:56:53.343Z,101594.88
2019-01-09T18:59:23.955Z,101601.41
2019-01-09T19:01:54.407Z,101596.23
2019-01-09T19:04:24.878Z,101590.56
2019-01-09T19:06:55.568Z,101596.22
2019-01-09T19:09:25.995Z,101602.77
2019-01-09T19:11:56.349Z,101601.48
2019-01-09T19:14:26.759Z,101609.72
2019-01-09T19:16:57.168Z,101609.70
2019-01-09T19:19:27.553Z,101617.11
2019-01-09T19:21:57.978Z,101613.60
2019-01-09T19:24:28.354Z,101608.36
2019-01-09T19:26:59.084Z,101603.61
2019-01-09T19:29:29.508Z,101603.17
2019-01-09T19:32:01.464Z,101614.08
2019-01-09T19:34:31.930Z,101612.80
2019-01-09T19:37:02.329Z,101629.75
2019-01-09T19:39:32.706Z,101624.55
2019-01-09T19:42:04.342Z,101618.02
2019-01-09T19:44:34.763Z,101619.82
2019-01-09T19:47:05.116Z,101618.04
2019-01-09T19:49:38.344Z,101620.23
2019-01-09T19:52:08.843Z,101620.23
2019-01-09T19:54:39.683Z,101623.74
2019-01-09T19:57:10.170Z,101625.91
2019-01-09T19:59:40.773Z,101621.13
2019-01-09T20:02:11.867Z,101620.72
2019-01-09T20:04:50.467Z,101629.00
2019-01-09T20:07:21.490Z,101642.50
2019-01-09T20:09:52.099Z,101635.14
2019-01-09T20:12:22.845Z,101636.86
2019-01-09T20:14:55.630Z,101638.61
2019-01-09T20:17:26.370Z,101639.47
2019-01-09T20:19:57.092Z,101645.12
2019-01-09T20:22:29.800Z,101644.33
2019-01-09T20:25:00.447Z,101643.47
2019-01-09T20:27:33.049Z,101656.53
2019-01-09T20:30:03.617Z,101650.44
2019-01-09T20:32:34.287Z,101652.64
2019-01-09T20:35:05.318Z,101650.91
2019-01-09T20:37:36.083Z,101663.10
2019-01-09T20:40:08.971Z,101655.27
2019-01-09T20:42:39.441Z,101659.19
2019-01-09T20:45:11.128Z,101663.08
2019-01-09T20:47:41.632Z,101665.72
2019-01-09T20:50:18.101Z,101670.94
2019-01-09T20:52:48.718Z,101673.13
2019-01-09T20:55:19.139Z,101686.59
2019-01-09T20:57:49.990Z,101684.87
2019-01-09T21:00:26.911Z,101680.06
2019-01-09T21:03:00.189Z,101685.72
2019-01-09T21:05:36.109Z,101694.43
2019-01-09T21:08:07.194Z,101699.23
2019-01-09T21:10:39.702Z,101697.05
2019-01-09T21:13:16.187Z,101700.97
2019-01-09T21:15:47.538Z,101705.76
2019-01-09T21:18:17.866Z,101707.48
2019-01-09T21:20:50.367Z,101708.78
2019-01-09T21:23:20.737Z,101708.34
2019-01-09T21:25:51.430Z,101704.85
2019-01-09T21:28:21.825Z,101703.98
2019-01-09T21:30:52.276Z,101705.29
2019-01-09T21:33:22.851Z,101711.41
2019-01-09T21:35:53.969Z,101708.81
2019-01-09T21:38:24.653Z,101709.67
2019-01-09T21:40:55.490Z,101716.64
2019-01-09T21:43:26.253Z,101717.06
2019-01-09T21:45:59.787Z,101716.64
2019-01-09T21:48:30.204Z,101720.98
2019-01-09T21:51:00.922Z,101723.14
2019-01-09T21:53:31.795Z,101717.50
2019-01-09T21:56:02.865Z,101724.02
2019-01-09T21:58:33.396Z,101731.42
2019-01-09T22:01:03.891Z,101740.96
2019-01-09T22:03:34.321Z,101740.08
2019-01-09T22:06:04.983Z,101737.94
2019-01-09T22:08:38.605Z,101746.17
2019-01-09T22:11:09.056Z,101756.60
2019-01-09T22:13:39.546Z,101767.02
2019-01-09T22:16:09.972Z,101766.14
2019-01-09T22:18:40.591Z,101773.13
2019-01-09T22:21:11.589Z,101770.05
2019-01-09T22:23:41.931Z,101774.42
2019-01-09T22:26:12.523Z,101771.81
2019-01-09T22:28:42.967Z,101770.48
2019-01-09T22:31:15.042Z,101770.48
2019-01-09T22:33:45.378Z,101767.45
2019-01-09T22:36:16.136Z,101772.66
2019-01-09T22:38:48.925Z,101767.45
2019-01-09T22:41:19.886Z,101778.28
2019-01-09T22:43:50.456Z,101779.58
2019-01-09T22:46:21.133Z,101779.99
2019-01-09T22:48:54.370Z,101780.86
2019-01-09T22:51:25.204Z,101791.70
2019-01-09T22:53:55.804Z,101798.20
2019-01-09T22:56:28.397Z,101796.47
2019-01-09T22:59:02.129Z,101795.17
2019-01-09T23:01:32.839Z,101795.13
2019-01-09T23:04:05.002Z,101792.09
2019-01-09T23:06:35.639Z,101792.11
2019-01-09T23:09:09.189Z,101798.65
2019-01-09T23:11:39.673Z,101801.23
2019-01-09T23:14:19.525Z,101801.21
2019-01-09T23:16:53.519Z,101805.12
2019-01-09T23:19:24.063Z,101796.47
2019-01-09T23:21:54.550Z,101794.30
2019-01-09T23:24:25.056Z,101793.83
2019-01-09T23:26:55.454Z,101800.38
2019-01-09T23:29:25.935Z,101801.19
2019-01-09T23:31:56.393Z,101799.87
2019-01-09T23:34:27.187Z,101800.72
2019-01-09T23:37:01.322Z,101805.06
2019-01-09T23:39:31.698Z,101808.96
2019-01-09T23:42:02.095Z,101811.09
2019-01-09T23:44:32.543Z,101809.37
2019-01-09T23:47:03.393Z,101807.64
2019-01-09T23:49:36.646Z,101816.31
2019-01-09T23:52:07.147Z,101815.88
2019-01-09T23:54:37.540Z,101819.75
2019-01-09T23:57:08.281Z,101824.08
2019-01-09T23:59:38.831Z,101819.78
